sensor_id;sensor_type;location;lat;lon;timestamp;temperature;humidity
65854;DHT22;52627;48.838;2.402;2022-09-12T00:01:18;18.65;69.60
65854;DHT22;52627;48.838;2.402;2022-09-12T00:03:52;18.65;69.57
65854;DHT22;52627;48.838;2.402;2022-09-12T00:06:25;18.65;69.60
65854;DHT22;52627;48.838;2.402;2022-09-12T00:08:57;18.64;69.61
65854;DHT22;52627;48.838;2.402;2022-09-12T00:11:28;18.63;69.65
65854;DHT22;52627;48.838;2.402;2022-09-12T00:13:57;18.61;69.64
65854;DHT22;52627;48.838;2.402;2022-09-12T00:16:27;18.59;69.69
65854;DHT22;52627;48.838;2.402;2022-09-12T00:18:57;18.58;69.69
65854;DHT22;52627;48.838;2.402;2022-09-12T00:21:26;18.57;69.70
65854;DHT22;52627;48.838;2.402;2022-09-12T00:23:54;18.56;69.70
65854;DHT22;52627;48.838;2.402;2022-09-12T00:26:22;18.56;69.70
65854;DHT22;52627;48.838;2.402;2022-09-12T00:28:50;18.53;69.72
65854;DHT22;52627;48.838;2.402;2022-09-12T00:31:20;18.52;69.80
65854;DHT22;52627;48.838;2.402;2022-09-12T00:33:51;18.51;69.81
65854;DHT22;52627;48.838;2.402;2022-09-12T00:36:22;18.51;69.81
65854;DHT22;52627;48.838;2.402;2022-09-12T00:38:51;18.51;69.90
65854;DHT22;52627;48.838;2.402;2022-09-12T00:41:54;18.51;69.90
65854;DHT22;52627;48.838;2.402;2022-09-12T00:52:09;18.45;70.02
65854;DHT22;52627;48.838;2.402;2022-09-12T00:54:42;18.42;70.10
65854;DHT22;52627;48.838;2.402;2022-09-12T00:57:17;18.37;70.22
65854;DHT22;52627;48.838;2.402;2022-09-12T00:59:51;18.31;70.37
65854;DHT22;52627;48.838;2.402;2022-09-12T01:02:24;18.26;70.39
65854;DHT22;52627;48.838;2.402;2022-09-12T01:04:52;18.24;70.41
65854;DHT22;52627;48.838;2.402;2022-09-12T01:07:19;18.23;70.45
65854;DHT22;52627;48.838;2.402;2022-09-12T01:09:48;18.21;70.46
65854;DHT22;52627;48.838;2.402;2022-09-12T01:12:16;18.19;70.50
65854;DHT22;52627;48.838;2.402;2022-09-12T01:14:44;18.18;70.50
65854;DHT22;52627;48.838;2.402;2022-09-12T01:17:12;18.16;70.50
65854;DHT22;52627;48.838;2.402;2022-09-12T01:32:22;18.05;70.81
65854;DHT22;52627;48.838;2.402;2022-09-12T01:34:43;18.00;70.95
65854;DHT22;52627;48.838;2.402;2022-09-12T01:49:17;17.99;71.13
65854;DHT22;52627;48.838;2.402;2022-09-12T01:55:06;17.96;71.29
65854;DHT22;52627;48.838;2.402;2022-09-12T01:57:40;17.96;71.30
65854;DHT22;52627;48.838;2.402;2022-09-12T02:00:16;17.95;71.30
65854;DHT22;52627;48.838;2.402;2022-09-12T02:10:39;17.91;71.56
65854;DHT22;52627;48.838;2.402;2022-09-12T02:13:18;17.88;71.62
65854;DHT22;52627;48.838;2.402;2022-09-12T02:15:53;17.86;71.65
65854;DHT22;52627;48.838;2.402;2022-09-12T02:18:31;17.83;71.79
65854;DHT22;52627;48.838;2.402;2022-09-12T02:21:05;17.78;71.82
65854;DHT22;52627;48.838;2.402;2022-09-12T02:23:34;17.75;71.93
65854;DHT22;52627;48.838;2.402;2022-09-12T02:26:11;17.74;71.99
65854;DHT22;52627;48.838;2.402;2022-09-12T02:28:47;17.70;72.02
65854;DHT22;52627;48.838;2.402;2022-09-12T02:31:22;17.68;72.04
65854;DHT22;52627;48.838;2.402;2022-09-12T02:39:41;17.63;72.24
65854;DHT22;52627;48.838;2.402;2022-09-12T02:42:11;17.60;72.37
65854;DHT22;52627;48.838;2.402;2022-09-12T02:44:39;17.57;72.53
65854;DHT22;52627;48.838;2.402;2022-09-12T02:47:09;17.53;72.61
65854;DHT22;52627;48.838;2.402;2022-09-12T02:49:44;17.51;72.62
65854;DHT22;52627;48.838;2.402;2022-09-12T02:52:11;17.49;72.72
65854;DHT22;52627;48.838;2.402;2022-09-12T02:54:39;17.47;72.77
65854;DHT22;52627;48.838;2.402;2022-09-12T02:57:18;17.46;72.80
65854;DHT22;52627;48.838;2.402;2022-09-12T02:59:50;17.44;72.85
65854;DHT22;52627;48.838;2.402;2022-09-12T03:08:33;17.44;72.91
65854;DHT22;52627;48.838;2.402;2022-09-12T03:17:25;17.41;73.10
65854;DHT22;52627;48.838;2.402;2022-09-12T03:26:22;17.30;73.30
65854;DHT22;52627;48.838;2.402;2022-09-12T03:28:51;17.30;73.30
65854;DHT22;52627;48.838;2.402;2022-09-12T03:31:21;17.29;73.31
65854;DHT22;52627;48.838;2.402;2022-09-12T03:33:49;17.31;73.30
65854;DHT22;52627;48.838;2.402;2022-09-12T03:36:24;17.30;73.36
65854;DHT22;52627;48.838;2.402;2022-09-12T03:38:54;17.30;73.43
65854;DHT22;52627;48.838;2.402;2022-09-12T03:41:22;17.27;73.51
65854;DHT22;52627;48.838;2.402;2022-09-12T03:43:49;17.22;73.59
65854;DHT22;52627;48.838;2.402;2022-09-12T03:46:17;17.17;73.69
65854;DHT22;52627;48.838;2.402;2022-09-12T03:48:44;17.12;73.71
65854;DHT22;52627;48.838;2.402;2022-09-12T03:51:12;17.12;73.70
65854;DHT22;52627;48.838;2.402;2022-09-12T03:53:39;17.13;73.70
65854;DHT22;52627;48.838;2.402;2022-09-12T03:56:08;17.13;73.70
65854;DHT22;52627;48.838;2.402;2022-09-12T03:58:37;17.13;73.70
65854;DHT22;52627;48.838;2.402;2022-09-12T04:01:12;17.13;73.75
65854;DHT22;52627;48.838;2.402;2022-09-12T04:03:43;17.11;73.80
65854;DHT22;52627;48.838;2.402;2022-09-12T04:06:15;17.10;73.83
65854;DHT22;52627;48.838;2.402;2022-09-12T04:08:49;17.06;73.96
65854;DHT22;52627;48.838;2.402;2022-09-12T04:11:19;17.01;73.98
65854;DHT22;52627;48.838;2.402;2022-09-12T04:13:48;17.01;74.00
65854;DHT22;52627;48.838;2.402;2022-09-12T04:16:16;16.99;74.02
65854;DHT22;52627;48.838;2.402;2022-09-12T04:18:45;16.97;74.03
65854;DHT22;52627;48.838;2.402;2022-09-12T04:21:14;16.96;74.10
65854;DHT22;52627;48.838;2.402;2022-09-12T04:23:46;16.94;74.10
65854;DHT22;52627;48.838;2.402;2022-09-12T04:26:14;16.94;74.18
65854;DHT22;52627;48.838;2.402;2022-09-12T04:28:43;16.93;74.20
65854;DHT22;52627;48.838;2.402;2022-09-12T04:31:14;16.92;74.27
65854;DHT22;52627;48.838;2.402;2022-09-12T04:33:44;16.90;74.26
65854;DHT22;52627;48.838;2.402;2022-09-12T04:36:13;16.90;74.29
65854;DHT22;52627;48.838;2.402;2022-09-12T04:38:43;16.89;74.30
65854;DHT22;52627;48.838;2.402;2022-09-12T04:41:14;16.89;74.31
65854;DHT22;52627;48.838;2.402;2022-09-12T04:43:44;16.89;74.38
65854;DHT22;52627;48.838;2.402;2022-09-12T04:46:13;16.88;74.39
65854;DHT22;52627;48.838;2.402;2022-09-12T04:48:46;16.87;74.45
65854;DHT22;52627;48.838;2.402;2022-09-12T04:51:21;16.85;74.50
65854;DHT22;52627;48.838;2.402;2022-09-12T04:53:55;16.84;74.50
65854;DHT22;52627;48.838;2.402;2022-09-12T04:56:25;16.84;74.57
65854;DHT22;52627;48.838;2.402;2022-09-12T04:58:53;16.83;74.61
65854;DHT22;52627;48.838;2.402;2022-09-12T05:01:24;16.81;74.71
65854;DHT22;52627;48.838;2.402;2022-09-12T05:03:54;16.79;74.75
65854;DHT22;52627;48.838;2.402;2022-09-12T05:06:23;16.78;74.80
65854;DHT22;52627;48.838;2.402;2022-09-12T05:08:53;16.77;74.85
65854;DHT22;52627;48.838;2.402;2022-09-12T05:11:23;16.78;74.90
65854;DHT22;52627;48.838;2.402;2022-09-12T05:14:16;16.79;74.91
65854;DHT22;52627;48.838;2.402;2022-09-12T05:16:43;16.79;74.96
65854;DHT22;52627;48.838;2.402;2022-09-12T05:19:15;16.80;74.98
65854;DHT22;52627;48.838;2.402;2022-09-12T05:21:43;16.81;74.96
65854;DHT22;52627;48.838;2.402;2022-09-12T05:24:11;16.83;74.95
65854;DHT22;52627;48.838;2.402;2022-09-12T05:26:38;16.83;74.91
65854;DHT22;52627;48.838;2.402;2022-09-12T05:29:06;16.83;74.90
65854;DHT22;52627;48.838;2.402;2022-09-12T05:31:33;16.83;74.94
65854;DHT22;52627;48.838;2.402;2022-09-12T05:34:01;16.81;75.00
65854;DHT22;52627;48.838;2.402;2022-09-12T05:36:36;16.79;75.00
65854;DHT22;52627;48.838;2.402;2022-09-12T05:39:04;16.78;74.96
65854;DHT22;52627;48.838;2.402;2022-09-12T05:41:32;16.78;74.98
65854;DHT22;52627;48.838;2.402;2022-09-12T05:44:01;16.80;75.00
65854;DHT22;52627;48.838;2.402;2022-09-12T05:46:39;16.79;75.06
65854;DHT22;52627;48.838;2.402;2022-09-12T05:49:10;16.73;75.18
65854;DHT22;52627;48.838;2.402;2022-09-12T05:51:40;16.67;75.25
65854;DHT22;52627;48.838;2.402;2022-09-12T05:54:12;16.61;75.39
65854;DHT22;52627;48.838;2.402;2022-09-12T05:56:41;16.56;75.40
65854;DHT22;52627;48.838;2.402;2022-09-12T05:59:14;16.58;75.40
65854;DHT22;52627;48.838;2.402;2022-09-12T06:01:45;16.61;75.40
65854;DHT22;52627;48.838;2.402;2022-09-12T06:04:15;16.66;75.40
65854;DHT22;52627;48.838;2.402;2022-09-12T06:06:43;16.71;75.34
65854;DHT22;52627;48.838;2.402;2022-09-12T06:09:13;16.76;75.33
65854;DHT22;52627;48.838;2.402;2022-09-12T06:11:42;16.79;75.38
65854;DHT22;52627;48.838;2.402;2022-09-12T06:14:12;16.83;75.34
65854;DHT22;52627;48.838;2.402;2022-09-12T06:16:42;16.87;75.30
65854;DHT22;52627;48.838;2.402;2022-09-12T06:19:17;16.90;75.31
65854;DHT22;52627;48.838;2.402;2022-09-12T06:21:47;16.93;75.30
65854;DHT22;52627;48.838;2.402;2022-09-12T06:24:16;16.95;75.26
65854;DHT22;52627;48.838;2.402;2022-09-12T06:26:45;16.99;75.19
65854;DHT22;52627;48.838;2.402;2022-09-12T06:29:14;16.99;75.13
65854;DHT22;52627;48.838;2.402;2022-09-12T06:31:42;16.96;75.10
65854;DHT22;52627;48.838;2.402;2022-09-12T06:34:13;16.95;75.10
65854;DHT22;52627;48.838;2.402;2022-09-12T06:36:43;17.00;75.09
65854;DHT22;52627;48.838;2.402;2022-09-12T06:39:14;17.05;75.00
65854;DHT22;52627;48.838;2.402;2022-09-12T06:41:43;17.10;74.91
65854;DHT22;52627;48.838;2.402;2022-09-12T06:44:12;17.14;74.83
65854;DHT22;52627;48.838;2.402;2022-09-12T06:46:42;17.20;74.82
65854;DHT22;52627;48.838;2.402;2022-09-12T06:49:11;17.26;74.76
65854;DHT22;52627;48.838;2.402;2022-09-12T06:51:38;17.30;74.67
65854;DHT22;52627;48.838;2.402;2022-09-12T06:54:08;17.35;74.64
65854;DHT22;52627;48.838;2.402;2022-09-12T06:56:39;17.40;74.54
65854;DHT22;52627;48.838;2.402;2022-09-12T06:59:07;17.45;74.44
65854;DHT22;52627;48.838;2.402;2022-09-12T07:01:35;17.52;74.45
65854;DHT22;52627;48.838;2.402;2022-09-12T07:04:03;17.58;74.33
65854;DHT22;52627;48.838;2.402;2022-09-12T07:06:35;17.65;74.25
65854;DHT22;52627;48.838;2.402;2022-09-12T07:09:09;17.70;74.16
65854;DHT22;52627;48.838;2.402;2022-09-12T07:11:39;17.72;74.00
65854;DHT22;52627;48.838;2.402;2022-09-12T07:14:09;17.77;74.00
65854;DHT22;52627;48.838;2.402;2022-09-12T07:16:40;17.83;73.83
65854;DHT22;52627;48.838;2.402;2022-09-12T07:19:08;17.87;73.73
65854;DHT22;52627;48.838;2.402;2022-09-12T07:21:36;17.93;73.70
65854;DHT22;52627;48.838;2.402;2022-09-12T07:24:09;18.02;73.64
65854;DHT22;52627;48.838;2.402;2022-09-12T07:26:38;18.12;73.46
65854;DHT22;52627;48.838;2.402;2022-09-12T07:29:07;18.24;73.34
65854;DHT22;52627;48.838;2.402;2022-09-12T07:32:02;18.40;73.17
65854;DHT22;52627;48.838;2.402;2022-09-12T07:34:31;18.53;73.00
65854;DHT22;52627;48.838;2.402;2022-09-12T07:37:01;18.65;72.78
65854;DHT22;52627;48.838;2.402;2022-09-12T07:39:28;18.74;72.59
65854;DHT22;52627;48.838;2.402;2022-09-12T07:41:55;18.88;72.47
65854;DHT22;52627;48.838;2.402;2022-09-12T07:44:23;19.06;72.24
65854;DHT22;52627;48.838;2.402;2022-09-12T07:46:51;19.32;72.03
65854;DHT22;52627;48.838;2.402;2022-09-12T07:49:18;19.62;71.54
65854;DHT22;52627;48.838;2.402;2022-09-12T07:51:46;19.90;71.24
65854;DHT22;52627;48.838;2.402;2022-09-12T07:54:13;20.19;71.12
65854;DHT22;52627;48.838;2.402;2022-09-12T07:56:41;20.58;70.89
65854;DHT22;52627;48.838;2.402;2022-09-12T07:59:09;20.99;70.52
65854;DHT22;52627;48.838;2.402;2022-09-12T08:01:36;21.50;69.93
65854;DHT22;52627;48.838;2.402;2022-09-12T08:04:05;22.03;69.45
65854;DHT22;52627;48.838;2.402;2022-09-12T08:06:33;22.68;68.70
65854;DHT22;52627;48.838;2.402;2022-09-12T08:09:02;23.30;68.10
65854;DHT22;52627;48.838;2.402;2022-09-12T08:11:31;23.89;66.60
65854;DHT22;52627;48.838;2.402;2022-09-12T08:13:59;24.15;65.42
65854;DHT22;52627;48.838;2.402;2022-09-12T08:16:29;24.57;65.68
65854;DHT22;52627;48.838;2.402;2022-09-12T08:18:59;25.27;64.92
65854;DHT22;52627;48.838;2.402;2022-09-12T08:21:29;25.87;63.43
65854;DHT22;52627;48.838;2.402;2022-09-12T08:23:59;26.15;62.20
65854;DHT22;52627;48.838;2.402;2022-09-12T08:26:31;26.33;60.62
65854;DHT22;52627;48.838;2.402;2022-09-12T08:28:59;26.53;60.85
65854;DHT22;52627;48.838;2.402;2022-09-12T08:31:27;27.15;59.93
65854;DHT22;52627;48.838;2.402;2022-09-12T08:33:55;27.69;59.39
65854;DHT22;52627;48.838;2.402;2022-09-12T08:36:25;28.28;58.14
65854;DHT22;52627;48.838;2.402;2022-09-12T08:38:54;28.63;56.09
65854;DHT22;52627;48.838;2.402;2022-09-12T08:41:34;28.85;55.75
65854;DHT22;52627;48.838;2.402;2022-09-12T08:47:43;29.69;53.82
65854;DHT22;52627;48.838;2.402;2022-09-12T08:50:16;30.00;53.03
65854;DHT22;52627;48.838;2.402;2022-09-12T08:58:12;30.38;48.67
65854;DHT22;52627;48.838;2.402;2022-09-12T09:00:46;30.24;48.63
65854;DHT22;52627;48.838;2.402;2022-09-12T09:17:44;32.27;44.37
65854;DHT22;52627;48.838;2.402;2022-09-12T09:28:50;33.02;40.94
65854;DHT22;52627;48.838;2.402;2022-09-12T09:31:33;32.78;40.62
65854;DHT22;52627;48.838;2.402;2022-09-12T09:34:09;32.98;40.45
65854;DHT22;52627;48.838;2.402;2022-09-12T09:36:48;33.23;39.72
65854;DHT22;52627;48.838;2.402;2022-09-12T09:42:40;33.64;38.17
65854;DHT22;52627;48.838;2.402;2022-09-12T09:45:20;33.39;37.62
65854;DHT22;52627;48.838;2.402;2022-09-12T09:48:03;33.30;37.37
65854;DHT22;52627;48.838;2.402;2022-09-12T09:50:44;33.40;37.27
65854;DHT22;52627;48.838;2.402;2022-09-12T09:53:30;33.51;37.00
65854;DHT22;52627;48.838;2.402;2022-09-12T09:56:12;33.60;36.50
65854;DHT22;52627;48.838;2.402;2022-09-12T10:01:57;33.19;35.88
65854;DHT22;52627;48.838;2.402;2022-09-12T10:04:30;33.13;35.72
65854;DHT22;52627;48.838;2.402;2022-09-12T10:07:16;33.34;35.85
65854;DHT22;52627;48.838;2.402;2022-09-12T10:10:28;33.54;35.44
65854;DHT22;52627;48.838;2.402;2022-09-12T10:12:40;33.31;35.32
65854;DHT22;52627;48.838;2.402;2022-09-12T10:15:24;33.30;35.18
65854;DHT22;52627;48.838;2.402;2022-09-12T10:17:52;33.29;34.87
65854;DHT22;52627;48.838;2.402;2022-09-12T10:20:29;33.17;34.46
65854;DHT22;52627;48.838;2.402;2022-09-12T10:23:29;33.10;34.42
65854;DHT22;52627;48.838;2.402;2022-09-12T10:26:07;33.04;34.07
65854;DHT22;52627;48.838;2.402;2022-09-12T10:28:39;32.89;34.10
65854;DHT22;52627;48.838;2.402;2022-09-12T10:31:24;33.03;34.44
65854;DHT22;52627;48.838;2.402;2022-09-12T10:33:58;33.28;34.25
65854;DHT22;52627;48.838;2.402;2022-09-12T10:36:36;33.22;33.89
65854;DHT22;52627;48.838;2.402;2022-09-12T10:39:05;33.08;33.84
65854;DHT22;52627;48.838;2.402;2022-09-12T10:41:34;33.11;34.05
65854;DHT22;52627;48.838;2.402;2022-09-12T10:44:07;33.38;34.02
65854;DHT22;52627;48.838;2.402;2022-09-12T10:46:52;33.28;33.73
65854;DHT22;52627;48.838;2.402;2022-09-12T10:49:21;33.21;33.81
65854;DHT22;52627;48.838;2.402;2022-09-12T10:51:51;33.40;33.39
65854;DHT22;52627;48.838;2.402;2022-09-12T10:54:21;33.18;32.97
65854;DHT22;52627;48.838;2.402;2022-09-12T10:59:41;32.99;32.89
65854;DHT22;52627;48.838;2.402;2022-09-12T11:02:58;32.56;33.02
65854;DHT22;52627;48.838;2.402;2022-09-12T11:08:20;32.47;33.26
65854;DHT22;52627;48.838;2.402;2022-09-12T11:14:08;32.29;33.01
65854;DHT22;52627;48.838;2.402;2022-09-12T11:20:30;32.25;33.03
65854;DHT22;52627;48.838;2.402;2022-09-12T11:35:50;32.59;33.85
65854;DHT22;52627;48.838;2.402;2022-09-12T11:41:25;32.46;33.59
65854;DHT22;52627;48.838;2.402;2022-09-12T11:44:10;32.15;33.17
65854;DHT22;52627;48.838;2.402;2022-09-12T11:46:43;31.90;33.28
65854;DHT22;52627;48.838;2.402;2022-09-12T11:49:18;31.88;33.41
65854;DHT22;52627;48.838;2.402;2022-09-12T11:57:44;31.73;33.98
65854;DHT22;52627;48.838;2.402;2022-09-12T12:08:28;31.53;34.12
65854;DHT22;52627;48.838;2.402;2022-09-12T12:10:59;31.66;34.21
65854;DHT22;52627;48.838;2.402;2022-09-12T12:13:33;31.79;34.10
65854;DHT22;52627;48.838;2.402;2022-09-12T12:18:59;31.76;34.13
65854;DHT22;52627;48.838;2.402;2022-09-12T12:21:37;31.59;33.45
65854;DHT22;52627;48.838;2.402;2022-09-12T12:50:02;31.12;34.68
65854;DHT22;52627;48.838;2.402;2022-09-12T12:55:44;31.21;34.94
65854;DHT22;52627;48.838;2.402;2022-09-12T13:01:03;31.58;35.05
65854;DHT22;52627;48.838;2.402;2022-09-12T13:03:42;31.66;35.01
65854;DHT22;52627;48.838;2.402;2022-09-12T13:06:53;31.72;34.90
65854;DHT22;52627;48.838;2.402;2022-09-12T13:11:41;31.73;34.38
65854;DHT22;52627;48.838;2.402;2022-09-12T13:17:03;31.78;34.27
65854;DHT22;52627;48.838;2.402;2022-09-12T13:19:35;31.94;34.39
65854;DHT22;52627;48.838;2.402;2022-09-12T13:22:08;32.25;34.30
65854;DHT22;52627;48.838;2.402;2022-09-12T13:24:43;32.47;34.12
65854;DHT22;52627;48.838;2.402;2022-09-12T13:27:21;32.64;34.03
65854;DHT22;52627;48.838;2.402;2022-09-12T13:30:07;32.76;33.81
65854;DHT22;52627;48.838;2.402;2022-09-12T13:32:40;32.85;33.69
65854;DHT22;52627;48.838;2.402;2022-09-12T13:35:14;32.86;33.49
65854;DHT22;52627;48.838;2.402;2022-09-12T13:38:27;32.78;33.33
65854;DHT22;52627;48.838;2.402;2022-09-12T13:44:42;32.37;33.16
65854;DHT22;52627;48.838;2.402;2022-09-12T13:47:15;32.06;33.14
65854;DHT22;52627;48.838;2.402;2022-09-12T13:49:53;31.72;33.19
65854;DHT22;52627;48.838;2.402;2022-09-12T13:52:22;31.47;33.10
65854;DHT22;52627;48.838;2.402;2022-09-12T13:54:55;31.14;33.17
65854;DHT22;52627;48.838;2.402;2022-09-12T13:57:32;30.94;33.27
65854;DHT22;52627;48.838;2.402;2022-09-12T14:00:12;30.75;33.28
65854;DHT22;52627;48.838;2.402;2022-09-12T14:02:46;30.52;33.51
65854;DHT22;52627;48.838;2.402;2022-09-12T14:05:20;30.32;33.85
65854;DHT22;52627;48.838;2.402;2022-09-12T14:13:01;30.07;34.65
65854;DHT22;52627;48.838;2.402;2022-09-12T14:15:32;29.92;34.74
65854;DHT22;52627;48.838;2.402;2022-09-12T14:18:04;29.84;34.88
65854;DHT22;52627;48.838;2.402;2022-09-12T14:20:35;29.78;34.91
65854;DHT22;52627;48.838;2.402;2022-09-12T14:23:50;29.72;34.99
65854;DHT22;52627;48.838;2.402;2022-09-12T14:25:56;29.70;35.27
65854;DHT22;52627;48.838;2.402;2022-09-12T14:28:28;29.64;35.42
65854;DHT22;52627;48.838;2.402;2022-09-12T14:33:46;29.49;35.58
65854;DHT22;52627;48.838;2.402;2022-09-12T14:36:26;29.50;35.76
65854;DHT22;52627;48.838;2.402;2022-09-12T14:39:21;29.48;35.88
65854;DHT22;52627;48.838;2.402;2022-09-12T14:42:03;29.45;36.01
65854;DHT22;52627;48.838;2.402;2022-09-12T14:44:42;29.42;36.23
65854;DHT22;52627;48.838;2.402;2022-09-12T14:47:30;29.43;36.35
65854;DHT22;52627;48.838;2.402;2022-09-12T14:50:20;29.37;36.47
65854;DHT22;52627;48.838;2.402;2022-09-12T14:55:40;29.17;36.68
65854;DHT22;52627;48.838;2.402;2022-09-12T15:00:56;29.15;36.74
65854;DHT22;52627;48.838;2.402;2022-09-12T15:03:32;29.09;36.72
65854;DHT22;52627;48.838;2.402;2022-09-12T15:06:03;29.06;36.78
65854;DHT22;52627;48.838;2.402;2022-09-12T15:08:34;29.09;36.79
65854;DHT22;52627;48.838;2.402;2022-09-12T15:11:01;29.11;36.80
65854;DHT22;52627;48.838;2.402;2022-09-12T15:13:37;29.13;36.70
65854;DHT22;52627;48.838;2.402;2022-09-12T15:16:08;29.11;36.59
65854;DHT22;52627;48.838;2.402;2022-09-12T15:18:38;29.00;36.30
65854;DHT22;52627;48.838;2.402;2022-09-12T15:21:06;28.94;36.38
65854;DHT22;52627;48.838;2.402;2022-09-12T15:23:40;28.93;36.37
65854;DHT22;52627;48.838;2.402;2022-09-12T15:26:22;28.96;36.32
65854;DHT22;52627;48.838;2.402;2022-09-12T15:28:53;28.94;36.14
65854;DHT22;52627;48.838;2.402;2022-09-12T15:31:22;28.89;35.96
65854;DHT22;52627;48.838;2.402;2022-09-12T15:33:54;28.83;35.84
65854;DHT22;52627;48.838;2.402;2022-09-12T15:36:24;28.75;35.74
65854;DHT22;52627;48.838;2.402;2022-09-12T15:38:53;28.70;35.89
65854;DHT22;52627;48.838;2.402;2022-09-12T15:41:21;28.68;35.87
65854;DHT22;52627;48.838;2.402;2022-09-12T15:43:58;28.64;35.97
65854;DHT22;52627;48.838;2.402;2022-09-12T15:46:25;28.67;36.10
65854;DHT22;52627;48.838;2.402;2022-09-12T15:48:53;28.67;36.05
65854;DHT22;52627;48.838;2.402;2022-09-12T15:51:21;28.65;36.15
65854;DHT22;52627;48.838;2.402;2022-09-12T15:53:49;28.61;36.16
65854;DHT22;52627;48.838;2.402;2022-09-12T15:56:18;28.57;36.22
65854;DHT22;52627;48.838;2.402;2022-09-12T15:58:48;28.58;36.22
65854;DHT22;52627;48.838;2.402;2022-09-12T16:01:25;28.57;36.23
65854;DHT22;52627;48.838;2.402;2022-09-12T16:03:54;28.57;36.40
65854;DHT22;52627;48.838;2.402;2022-09-12T16:06:23;28.53;36.60
65854;DHT22;52627;48.838;2.402;2022-09-12T16:08:51;28.49;36.79
65854;DHT22;52627;48.838;2.402;2022-09-12T16:11:20;28.46;37.02
65854;DHT22;52627;48.838;2.402;2022-09-12T16:13:53;28.41;37.07
65854;DHT22;52627;48.838;2.402;2022-09-12T16:16:22;28.35;37.09
65854;DHT22;52627;48.838;2.402;2022-09-12T16:18:50;28.33;37.17
65854;DHT22;52627;48.838;2.402;2022-09-12T16:21:17;28.29;37.17
65854;DHT22;52627;48.838;2.402;2022-09-12T16:23:45;28.26;37.22
65854;DHT22;52627;48.838;2.402;2022-09-12T16:26:14;28.22;37.22
65854;DHT22;52627;48.838;2.402;2022-09-12T16:28:42;28.16;37.23
65854;DHT22;52627;48.838;2.402;2022-09-12T16:31:11;28.10;37.36
65854;DHT22;52627;48.838;2.402;2022-09-12T16:33:40;28.03;37.49
65854;DHT22;52627;48.838;2.402;2022-09-12T16:36:08;27.99;37.63
65854;DHT22;52627;48.838;2.402;2022-09-12T16:38:40;27.97;37.83
65854;DHT22;52627;48.838;2.402;2022-09-12T16:41:09;27.94;38.08
65854;DHT22;52627;48.838;2.402;2022-09-12T16:43:37;27.91;38.26
65854;DHT22;52627;48.838;2.402;2022-09-12T16:46:07;27.90;38.40
65854;DHT22;52627;48.838;2.402;2022-09-12T16:48:44;27.88;38.56
65854;DHT22;52627;48.838;2.402;2022-09-12T16:51:22;27.83;38.66
65854;DHT22;52627;48.838;2.402;2022-09-12T16:53:53;27.80;38.69
65854;DHT22;52627;48.838;2.402;2022-09-12T16:56:22;27.80;38.64
65854;DHT22;52627;48.838;2.402;2022-09-12T16:58:50;27.78;38.68
65854;DHT22;52627;48.838;2.402;2022-09-12T17:01:19;27.77;38.59
65854;DHT22;52627;48.838;2.402;2022-09-12T17:03:53;27.74;38.60
65854;DHT22;52627;48.838;2.402;2022-09-12T17:06:23;27.72;38.67
65854;DHT22;52627;48.838;2.402;2022-09-12T17:08:52;27.68;38.59
65854;DHT22;52627;48.838;2.402;2022-09-12T17:11:22;27.61;38.61
65854;DHT22;52627;48.838;2.402;2022-09-12T17:13:53;27.57;38.72
65854;DHT22;52627;48.838;2.402;2022-09-12T17:16:33;27.55;38.80
65854;DHT22;52627;48.838;2.402;2022-09-12T17:19:03;27.51;38.85
65854;DHT22;52627;48.838;2.402;2022-09-12T17:21:32;27.49;38.96
65854;DHT22;52627;48.838;2.402;2022-09-12T17:24:01;27.47;39.00
65854;DHT22;52627;48.838;2.402;2022-09-12T17:26:29;27.45;39.09
65854;DHT22;52627;48.838;2.402;2022-09-12T17:28:57;27.43;39.21
65854;DHT22;52627;48.838;2.402;2022-09-12T17:31:25;27.43;39.29
65854;DHT22;52627;48.838;2.402;2022-09-12T17:33:56;27.42;39.41
65854;DHT22;52627;48.838;2.402;2022-09-12T17:36:24;27.40;39.50
65854;DHT22;52627;48.838;2.402;2022-09-12T17:38:52;27.38;39.63
65854;DHT22;52627;48.838;2.402;2022-09-12T17:41:21;27.33;39.74
65854;DHT22;52627;48.838;2.402;2022-09-12T17:43:53;27.29;39.86
65854;DHT22;52627;48.838;2.402;2022-09-12T17:46:24;27.25;39.98
65854;DHT22;52627;48.838;2.402;2022-09-12T17:48:56;27.18;40.16
65854;DHT22;52627;48.838;2.402;2022-09-12T17:51:24;27.13;40.32
65854;DHT22;52627;48.838;2.402;2022-09-12T17:53:55;27.07;40.44
65854;DHT22;52627;48.838;2.402;2022-09-12T17:56:32;27.02;40.57
65854;DHT22;52627;48.838;2.402;2022-09-12T17:59:03;26.98;40.71
65854;DHT22;52627;48.838;2.402;2022-09-12T18:01:32;26.93;40.87
65854;DHT22;52627;48.838;2.402;2022-09-12T18:04:19;26.88;41.02
65854;DHT22;52627;48.838;2.402;2022-09-12T18:06:47;26.83;41.22
65854;DHT22;52627;48.838;2.402;2022-09-12T18:09:16;26.77;41.40
65854;DHT22;52627;48.838;2.402;2022-09-12T18:11:46;26.70;41.59
65854;DHT22;52627;48.838;2.402;2022-09-12T18:14:14;26.63;41.78
65854;DHT22;52627;48.838;2.402;2022-09-12T18:16:43;26.56;41.98
65854;DHT22;52627;48.838;2.402;2022-09-12T18:19:12;26.48;42.19
65854;DHT22;52627;48.838;2.402;2022-09-12T18:21:40;26.41;42.33
65854;DHT22;52627;48.838;2.402;2022-09-12T18:24:08;26.38;42.47
65854;DHT22;52627;48.838;2.402;2022-09-12T18:26:37;26.33;42.62
65854;DHT22;52627;48.838;2.402;2022-09-12T18:29:04;26.28;42.83
65854;DHT22;52627;48.838;2.402;2022-09-12T18:31:32;26.25;43.00
65854;DHT22;52627;48.838;2.402;2022-09-12T18:34:00;26.22;43.16
65854;DHT22;52627;48.838;2.402;2022-09-12T18:36:28;26.17;43.33
65854;DHT22;52627;48.838;2.402;2022-09-12T18:38:57;26.11;43.53
65854;DHT22;52627;48.838;2.402;2022-09-12T18:41:26;26.06;43.66
65854;DHT22;52627;48.838;2.402;2022-09-12T18:43:55;26.03;43.81
65854;DHT22;52627;48.838;2.402;2022-09-12T18:46:25;25.98;43.97
65854;DHT22;52627;48.838;2.402;2022-09-12T18:48:55;25.92;44.10
65854;DHT22;52627;48.838;2.402;2022-09-12T18:51:25;25.88;44.26
65854;DHT22;52627;48.838;2.402;2022-09-12T18:54:00;25.85;44.45
65854;DHT22;52627;48.838;2.402;2022-09-12T18:56:34;25.80;44.57
65854;DHT22;52627;48.838;2.402;2022-09-12T18:59:04;25.77;44.73
65854;DHT22;52627;48.838;2.402;2022-09-12T19:01:34;25.72;44.87
65854;DHT22;52627;48.838;2.402;2022-09-12T19:04:03;25.68;45.08
65854;DHT22;52627;48.838;2.402;2022-09-12T19:06:35;25.63;45.20
65854;DHT22;52627;48.838;2.402;2022-09-12T19:09:06;25.58;45.46
65854;DHT22;52627;48.838;2.402;2022-09-12T19:11:36;25.49;45.69
65854;DHT22;52627;48.838;2.402;2022-09-12T19:14:05;25.44;45.81
65854;DHT22;52627;48.838;2.402;2022-09-12T19:16:33;25.40;45.98
65854;DHT22;52627;48.838;2.402;2022-09-12T19:19:01;25.36;46.24
65854;DHT22;52627;48.838;2.402;2022-09-12T19:21:29;25.30;46.46
65854;DHT22;52627;48.838;2.402;2022-09-12T19:24:00;25.24;46.71
65854;DHT22;52627;48.838;2.402;2022-09-12T19:26:31;25.18;46.83